Polvadera, New Mexico
Current Conditions -  °F | °C
As of 12:15 PM on Sunday 21 Dec 2014 (Local Time) from KONM Reporting Station
Clear Clear  
Wind Chill: 44°   Ceiling: Unl
Heat Index: 47°   Visibility: 10mi
Dew Point: 25°   Wind: 5mph
Humidity: 43%   Direction: 140°SE
Pressure: 30"   Gusts: NA
Location:  34.2°N, 106.92°W
Report Text: KONM 211915Z AUTO 14004KT 10SM CLR 08/M04 A3000 RMK AO2 T00811038
Loading
Personal Weather Stations






























Interactive Weather Map New forecast layout! Learn more

10-Day Weather Forecast

Advertisements
Track Severe Weather on mobile